createdAt,value
2023-03-26T00:02:11.261Z,19.38
2023-03-26T00:04:37.771Z,18.25
2023-03-26T00:07:04.225Z,16.05
2023-03-26T00:09:30.740Z,17.27
2023-03-26T00:11:57.207Z,20.92
2023-03-26T00:14:23.681Z,17.02
2023-03-26T00:16:50.214Z,15.68
2023-03-26T00:19:16.688Z,24.75
2023-03-26T00:21:43.148Z,15.18
2023-03-26T00:24:12.278Z,14.20
2023-03-26T00:26:38.750Z,16.23
2023-03-26T00:29:05.552Z,19.92
2023-03-26T00:31:33.006Z,17.92
2023-03-26T00:33:59.505Z,16.25
2023-03-26T00:36:26.193Z,18.58
2023-03-26T00:38:53.258Z,16.27
2023-03-26T00:41:21.126Z,15.93
2023-03-26T00:43:47.620Z,14.05
2023-03-26T00:46:14.878Z,18.15
2023-03-26T00:48:45.615Z,20.33
2023-03-26T00:51:14.644Z,16.75
2023-03-26T00:53:41.764Z,21.67
2023-03-26T00:56:09.350Z,18.15
2023-03-26T00:58:35.907Z,20.20
2023-03-26T01:01:06.239Z,17.80
2023-03-26T01:03:35.427Z,18.05
2023-03-26T01:06:04.050Z,19.55
2023-03-26T01:08:44.867Z,16.55
2023-03-26T01:11:23.316Z,16.38
2023-03-26T01:13:53.989Z,28.67
2023-03-26T01:16:49.350Z,15.97
2023-03-26T01:19:37.510Z,19.33
2023-03-26T01:22:06.354Z,15.45
2023-03-26T01:24:32.779Z,19.00
2023-03-26T01:27:22.554Z,18.10
2023-03-26T01:30:03.286Z,17.50
2023-03-26T01:32:52.913Z,10.83
2023-03-26T01:35:57.876Z,17.90
2023-03-26T01:38:42.943Z,18.27
2023-03-26T01:41:15.310Z,16.83
2023-03-26T01:43:49.928Z,18.77
2023-03-26T01:46:18.735Z,16.33
2023-03-26T01:48:47.173Z,15.98
2023-03-26T01:51:14.949Z,14.55
2023-03-26T01:53:45.944Z,18.63
2023-03-26T01:56:27.106Z,27.48
2023-03-26T01:59:12.517Z,20.55
2023-03-26T02:01:50.614Z,18.95
2023-03-26T02:04:23.237Z,19.17
2023-03-26T02:07:08.076Z,19.67
2023-03-26T02:09:43.330Z,16.58
2023-03-26T02:12:10.425Z,19.55
2023-03-26T02:14:36.916Z,21.80
2023-03-26T02:17:03.619Z,15.80
2023-03-26T02:19:30.162Z,20.52
2023-03-26T02:21:56.665Z,21.67
2023-03-26T02:24:23.220Z,19.60
2023-03-26T02:26:54.264Z,23.52
2023-03-26T02:29:20.819Z,16.75
2023-03-26T02:31:48.851Z,15.52
2023-03-26T02:34:16.494Z,13.25
2023-03-26T02:36:49.976Z,16.15
2023-03-26T02:39:16.642Z,15.95
2023-03-26T02:41:50.758Z,19.10
2023-03-26T02:44:17.314Z,17.95
2023-03-26T02:47:06.633Z,15.30
2023-03-26T02:49:51.653Z,17.88
2023-03-26T02:52:27.664Z,14.73
2023-03-26T02:54:57.479Z,19.67
2023-03-26T02:57:25.126Z,12.77
2023-03-26T03:00:00.712Z,22.33
2023-03-26T03:02:36.261Z,18.05
2023-03-26T03:05:20.523Z,22.95
2023-03-26T03:07:53.558Z,18.17
2023-03-26T03:10:20.054Z,19.60
2023-03-26T03:13:06.296Z,16.02
2023-03-26T03:15:33.102Z,9.95
2023-03-26T03:17:59.567Z,12.77
2023-03-26T03:20:28.886Z,18.48
2023-03-26T03:22:55.460Z,18.35
2023-03-26T03:25:22.418Z,17.10
2023-03-26T03:27:50.013Z,18.70
2023-03-26T03:30:16.786Z,14.80
2023-03-26T03:32:46.199Z,19.50
2023-03-26T03:35:16.007Z,19.63
2023-03-26T03:37:47.091Z,17.27
2023-03-26T03:40:13.885Z,13.20
2023-03-26T03:42:40.984Z,16.50
2023-03-26T03:45:09.620Z,22.05
2023-03-26T03:47:50.477Z,21.00
2023-03-26T03:50:23.341Z,15.38
2023-03-26T03:53:05.346Z,13.40
2023-03-26T03:55:32.360Z,19.27
2023-03-26T03:57:58.919Z,16.10
2023-03-26T04:00:26.186Z,16.52
2023-03-26T04:03:12.700Z,21.42
2023-03-26T04:05:39.375Z,14.80
2023-03-26T04:08:06.677Z,12.63
2023-03-26T04:10:54.254Z,23.65
2023-03-26T04:13:44.443Z,14.27
2023-03-26T04:16:22.647Z,15.57
2023-03-26T04:18:49.184Z,16.63
2023-03-26T04:21:15.625Z,16.45
2023-03-26T04:23:42.691Z,23.20
2023-03-26T04:26:29.397Z,26.45
2023-03-26T04:29:07.984Z,21.98
2023-03-26T04:31:35.403Z,17.48
2023-03-26T04:34:08.320Z,21.23
2023-03-26T04:36:43.073Z,17.47
2023-03-26T04:39:12.787Z,18.42
2023-03-26T04:41:59.652Z,21.75
2023-03-26T04:44:32.683Z,13.45
2023-03-26T04:47:03.785Z,16.45
2023-03-26T04:49:36.028Z,22.80
2023-03-26T04:52:02.765Z,21.52
2023-03-26T04:54:56.390Z,21.25
2023-03-26T04:57:39.158Z,23.90
2023-03-26T05:00:13.455Z,23.77
2023-03-26T05:02:40.170Z,25.33
2023-03-26T05:05:07.643Z,19.85
2023-03-26T05:07:36.253Z,24.45
2023-03-26T05:10:03.875Z,21.25
2023-03-26T05:12:53.215Z,23.17
2023-03-26T05:15:35.410Z,23.30
2023-03-26T05:18:07.757Z,25.55
2023-03-26T05:20:38.820Z,17.75
2023-03-26T05:23:07.560Z,29.95
2023-03-26T05:25:37.157Z,25.58
2023-03-26T05:28:10.586Z,26.60
2023-03-26T05:30:53.025Z,19.42
2023-03-26T05:33:21.715Z,21.27
2023-03-26T05:36:06.893Z,18.90
2023-03-26T05:38:33.804Z,38.13
2023-03-26T05:41:05.770Z,28.92
2023-03-26T05:43:34.858Z,20.83
2023-03-26T05:46:20.493Z,25.98
2023-03-26T05:48:47.232Z,28.35
2023-03-26T05:51:14.294Z,18.30
2023-03-26T05:53:47.964Z,26.70
2023-03-26T05:56:52.721Z,26.35
2023-03-26T05:59:38.139Z,26.20
2023-03-26T06:02:24.998Z,26.60
2023-03-26T06:08:08.775Z,27.58
2023-03-26T06:10:39.040Z,27.92
2023-03-26T06:13:05.883Z,29.08
2023-03-26T06:15:35.475Z,26.45
2023-03-26T06:18:14.089Z,22.58
2023-03-26T06:20:58.634Z,30.85
2023-03-26T06:23:36.697Z,28.52
2023-03-26T06:26:06.080Z,23.35
2023-03-26T06:28:47.939Z,28.45
2023-03-26T06:31:37.318Z,28.15
2023-03-26T06:34:17.049Z,33.03
2023-03-26T06:36:43.682Z,37.10
2023-03-26T06:39:10.225Z,36.00
2023-03-26T06:41:43.684Z,32.20
2023-03-26T06:44:28.545Z,28.45
2023-03-26T06:47:13.461Z,25.35
2023-03-26T06:49:58.435Z,23.48
2023-03-26T06:52:53.925Z,33.95
2023-03-26T06:55:34.488Z,30.23
2023-03-26T06:58:10.847Z,22.83
2023-03-26T07:00:53.858Z,20.92
2023-03-26T07:03:39.828Z,24.00
2023-03-26T07:06:24.973Z,25.00
2023-03-26T07:09:17.425Z,22.83
2023-03-26T07:12:22.212Z,24.20
2023-03-26T07:15:07.562Z,20.00
2023-03-26T07:18:03.126Z,28.35
2023-03-26T07:20:33.304Z,17.52
2023-03-26T07:23:00.116Z,17.40
2023-03-26T07:25:36.698Z,23.88
2023-03-26T07:28:21.126Z,22.55
2023-03-26T07:31:41.628Z,31.55
2023-03-26T07:34:44.550Z,29.02
2023-03-26T07:37:30.510Z,23.98
2023-03-26T07:40:35.592Z,25.73
2023-03-26T07:44:11.202Z,32.67
2023-03-26T07:47:29.862Z,29.70
2023-03-26T07:50:21.213Z,32.63
2023-03-26T07:53:14.606Z,37.05
2023-03-26T07:56:33.632Z,31.50
2023-03-26T07:59:34.284Z,33.88
2023-03-26T08:02:35.229Z,36.00
2023-03-26T08:05:30.306Z,28.08
2023-03-26T08:08:53.723Z,27.70
2023-03-26T08:12:02.152Z,30.90
2023-03-26T08:14:42.649Z,34.97
2023-03-26T08:17:44.664Z,33.75
2023-03-26T08:22:55.597Z,39.10
2023-03-26T08:25:35.166Z,46.15
2023-03-26T08:28:31.341Z,43.22
2023-03-26T08:30:58.254Z,36.83
2023-03-26T08:33:26.834Z,40.70
2023-03-26T08:35:53.355Z,36.00
2023-03-26T08:38:20.581Z,52.55
2023-03-26T08:41:11.887Z,52.72
2023-03-26T08:44:13.532Z,28.42
2023-03-26T08:47:09.074Z,40.83
2023-03-26T08:50:03.333Z,36.08
2023-03-26T08:53:18.950Z,47.00
2023-03-26T08:56:11.409Z,39.35
2023-03-26T08:58:51.019Z,33.83
2023-03-26T09:01:35.537Z,31.10
2023-03-26T09:04:23.730Z,29.63
2023-03-26T09:07:24.497Z,26.52
2023-03-26T09:10:16.371Z,16.60
2023-03-26T09:13:01.153Z,19.95
2023-03-26T09:15:33.404Z,20.70
2023-03-26T09:18:26.304Z,25.35
2023-03-26T09:21:10.869Z,21.75
2023-03-26T09:24:14.623Z,21.40
2023-03-26T09:26:59.297Z,21.48
2023-03-26T09:29:42.506Z,18.35
2023-03-26T09:32:33.281Z,21.40
2023-03-26T09:35:21.620Z,23.50
2023-03-26T09:37:58.872Z,20.30
2023-03-26T09:40:42.969Z,25.95
2023-03-26T09:46:18.722Z,20.88
2023-03-26T09:48:48.133Z,19.83
2023-03-26T09:51:17.581Z,21.50
2023-03-26T09:54:02.149Z,18.20
2023-03-26T09:56:34.383Z,20.58
2023-03-26T09:59:29.949Z,17.45
2023-03-26T10:02:14.666Z,26.58
2023-03-26T10:04:58.599Z,20.35
2023-03-26T10:07:49.038Z,20.95
2023-03-26T10:10:34.507Z,17.40
2023-03-26T10:13:27.422Z,20.17
2023-03-26T10:16:15.743Z,22.63
2023-03-26T10:19:19.852Z,19.85
2023-03-26T10:21:57.751Z,25.77
2023-03-26T10:25:04.663Z,30.25
2023-03-26T10:27:34.231Z,17.10
2023-03-26T10:30:09.671Z,16.65
2023-03-26T10:32:50.615Z,21.08
2023-03-26T10:35:33.633Z,15.38
2023-03-26T10:38:18.296Z,20.88
2023-03-26T10:41:15.339Z,28.48
2023-03-26T10:44:14.093Z,22.52
2023-03-26T10:46:59.924Z,29.35
2023-03-26T10:49:50.867Z,20.45
2023-03-26T10:52:36.573Z,26.80
2023-03-26T10:55:20.832Z,20.77
2023-03-26T10:57:55.835Z,21.77
2023-03-26T11:00:25.801Z,17.23
2023-03-26T11:03:17.137Z,20.00
2023-03-26T11:05:52.869Z,18.02
2023-03-26T11:08:31.513Z,21.00
2023-03-26T11:11:06.484Z,27.95
2023-03-26T11:14:00.771Z,23.70
2023-03-26T11:16:57.085Z,22.48
2023-03-26T11:19:33.070Z,30.17
2023-03-26T11:22:56.756Z,44.85
2023-03-26T11:25:50.926Z,22.95
2023-03-26T11:29:03.597Z,20.10
2023-03-26T11:31:54.057Z,31.63
2023-03-26T11:34:27.797Z,32.20
2023-03-26T11:36:58.499Z,16.40
2023-03-26T11:39:33.896Z,20.80
2023-03-26T11:42:08.877Z,24.60
2023-03-26T11:44:59.004Z,15.70
2023-03-26T11:47:47.965Z,20.67
2023-03-26T11:50:18.598Z,23.45
2023-03-26T11:52:46.918Z,19.00
2023-03-26T11:55:13.654Z,21.73
2023-03-26T11:57:44.991Z,18.88
2023-03-26T12:00:17.255Z,12.70
2023-03-26T12:02:46.262Z,19.23
2023-03-26T12:05:17.625Z,16.42
2023-03-26T12:07:52.831Z,18.45
2023-03-26T12:10:28.685Z,18.88
2023-03-26T12:12:59.811Z,14.95
2023-03-26T12:15:27.827Z,18.17
2023-03-26T12:17:57.319Z,17.70
2023-03-26T12:20:24.013Z,16.50
2023-03-26T12:22:58.342Z,13.07
2023-03-26T12:25:34.064Z,14.27
2023-03-26T12:28:17.526Z,13.27
2023-03-26T12:31:04.155Z,14.75
2023-03-26T12:33:32.972Z,12.10
2023-03-26T12:36:15.582Z,13.05
2023-03-26T12:38:42.537Z,14.30
2023-03-26T12:44:43.356Z,11.07
2023-03-26T12:44:50.126Z,17.75
2023-03-26T12:47:57.448Z,8.65
2023-03-26T12:50:15.362Z,12.52
2023-03-26T12:53:16.818Z,9.57
2023-03-26T12:55:52.437Z,13.80
2023-03-26T12:58:52.681Z,8.60
2023-03-26T13:01:35.933Z,10.32
2023-03-26T13:04:14.383Z,12.55
2023-03-26T13:07:00.201Z,10.63
2023-03-26T13:09:47.355Z,8.45
2023-03-26T13:12:25.736Z,13.77
2023-03-26T13:15:05.183Z,17.58
2023-03-26T13:17:42.583Z,14.00
2023-03-26T13:20:45.005Z,15.45
2023-03-26T13:23:33.340Z,20.70
2023-03-26T13:26:11.878Z,10.00
2023-03-26T13:29:02.023Z,16.85
2023-03-26T13:31:32.991Z,13.85
2023-03-26T13:34:28.544Z,19.00
2023-03-26T13:37:01.113Z,10.60
2023-03-26T13:40:06.750Z,12.98
2023-03-26T13:43:05.637Z,12.68
2023-03-26T13:45:54.050Z,12.35
2023-03-26T13:48:28.232Z,13.77
2023-03-26T13:51:03.677Z,16.25
2023-03-26T13:53:55.803Z,9.93
2023-03-26T13:56:30.725Z,8.35
2023-03-26T13:59:03.021Z,17.30
2023-03-26T14:01:38.915Z,14.82
2023-03-26T14:04:28.578Z,17.35
2023-03-26T14:07:09.605Z,10.70
2023-03-26T14:09:48.077Z,15.40
2023-03-26T14:12:27.627Z,13.45
2023-03-26T14:15:16.044Z,15.38
2023-03-26T14:17:55.347Z,10.30
2023-03-26T14:20:39.968Z,11.55
2023-03-26T14:23:11.665Z,14.65
2023-03-26T14:25:47.200Z,14.88
2023-03-26T14:28:38.502Z,8.25
2023-03-26T14:31:14.171Z,12.25
2023-03-26T14:34:05.721Z,9.60
2023-03-26T14:37:27.973Z,9.27
2023-03-26T14:40:22.722Z,8.55
2023-03-26T14:43:16.361Z,14.85
2023-03-26T14:45:59.324Z,8.88
2023-03-26T14:49:02.789Z,13.13
2023-03-26T14:51:48.907Z,12.13
2023-03-26T14:54:22.511Z,8.57
2023-03-26T14:57:06.881Z,10.90
2023-03-26T15:00:01.236Z,9.90
2023-03-26T15:02:46.302Z,13.07
2023-03-26T15:05:50.328Z,9.20
2023-03-26T15:08:58.981Z,8.18
2023-03-26T15:12:13.168Z,7.25
2023-03-26T15:15:17.282Z,7.80
2023-03-26T15:18:21.098Z,7.90
2023-03-26T15:21:18.837Z,8.68
2023-03-26T15:24:03.706Z,7.60
2023-03-26T15:27:24.407Z,13.07
2023-03-26T15:30:03.108Z,16.00
2023-03-26T15:32:41.814Z,9.07
2023-03-26T15:35:57.504Z,8.98
2023-03-26T15:38:42.246Z,11.23
2023-03-26T15:41:25.230Z,8.77
2023-03-26T15:44:22.943Z,6.75
2023-03-26T15:47:26.528Z,6.47
2023-03-26T15:50:31.915Z,9.80
2023-03-26T15:53:21.700Z,7.90
2023-03-26T15:56:17.138Z,15.25
2023-03-26T15:59:26.389Z,11.25
2023-03-26T16:01:55.726Z,13.57
2023-03-26T16:04:56.124Z,13.02
2023-03-26T16:07:59.319Z,6.47
2023-03-26T16:10:29.837Z,6.13
2023-03-26T16:13:22.045Z,4.70
2023-03-26T16:16:04.043Z,6.50
2023-03-26T16:18:35.028Z,11.82
2023-03-26T16:21:32.048Z,8.57
2023-03-26T16:24:02.426Z,10.27
2023-03-26T16:26:44.027Z,9.23
2023-03-26T16:29:13.631Z,6.40
2023-03-26T16:32:25.357Z,7.93
2023-03-26T16:35:15.113Z,10.75
2023-03-26T16:37:42.938Z,10.93
2023-03-26T16:40:18.626Z,12.20
2023-03-26T16:42:54.346Z,11.38
2023-03-26T16:45:57.956Z,7.90
2023-03-26T16:49:03.616Z,6.55
2023-03-26T16:51:52.935Z,12.35
2023-03-26T16:54:49.422Z,9.43
2023-03-26T16:57:34.082Z,14.13
2023-03-26T17:00:10.644Z,13.70
2023-03-26T17:03:00.943Z,10.27
2023-03-26T17:05:37.454Z,13.27
2023-03-26T17:08:42.926Z,8.73
2023-03-26T17:11:21.228Z,14.63
2023-03-26T17:14:00.060Z,10.27
2023-03-26T17:16:46.201Z,12.50
2023-03-26T17:19:35.455Z,14.00
2023-03-26T17:22:01.863Z,8.15
2023-03-26T17:24:46.859Z,12.77
2023-03-26T17:27:36.585Z,8.70
2023-03-26T17:30:27.865Z,12.40
2023-03-26T17:32:57.066Z,10.23
2023-03-26T17:35:42.252Z,6.82
2023-03-26T17:38:18.074Z,10.70
2023-03-26T17:40:49.303Z,6.60
2023-03-26T17:43:44.176Z,7.63
2023-03-26T17:46:25.641Z,8.90
2023-03-26T17:49:26.895Z,11.88
2023-03-26T17:52:17.992Z,9.93
2023-03-26T17:54:47.223Z,12.40
2023-03-26T17:57:36.215Z,12.02
2023-03-26T18:00:03.567Z,15.93
2023-03-26T18:02:43.108Z,11.52
2023-03-26T18:05:13.192Z,10.65
2023-03-26T18:08:17.001Z,9.75
2023-03-26T18:11:21.846Z,7.55
2023-03-26T18:14:07.782Z,9.60
2023-03-26T18:16:41.720Z,10.27
2023-03-26T18:19:13.450Z,5.88
2023-03-26T18:24:11.924Z,8.00
2023-03-26T18:26:42.269Z,16.85
2023-03-26T18:29:21.409Z,10.55
2023-03-26T18:31:52.473Z,13.30
2023-03-26T18:34:19.263Z,8.77
2023-03-26T18:36:51.217Z,13.35
2023-03-26T18:39:18.595Z,9.68
2023-03-26T18:41:45.332Z,7.15
2023-03-26T18:44:17.551Z,9.48
2023-03-26T18:46:45.181Z,10.88
2023-03-26T18:49:16.651Z,9.45
2023-03-26T18:51:56.274Z,11.30
2023-03-26T18:54:25.071Z,11.77
2023-03-26T18:56:51.965Z,7.50
2023-03-26T18:59:30.032Z,11.43
2023-03-26T19:01:57.687Z,8.75
2023-03-26T19:04:30.210Z,16.80
2023-03-26T19:06:57.173Z,9.73
2023-03-26T19:09:32.199Z,13.48
2023-03-26T19:12:07.386Z,10.63
2023-03-26T19:14:34.235Z,14.38
2023-03-26T19:17:06.162Z,7.38
2023-03-26T19:19:36.288Z,18.25
2023-03-26T19:22:05.531Z,11.55
2023-03-26T19:24:32.160Z,7.63
2023-03-26T19:26:59.327Z,16.55
2023-03-26T19:29:32.789Z,9.85
2023-03-26T19:32:18.338Z,13.50
2023-03-26T19:34:46.798Z,8.10
2023-03-26T19:37:32.058Z,10.27
2023-03-26T19:40:21.697Z,15.77
2023-03-26T19:42:48.855Z,10.48
2023-03-26T19:45:19.330Z,9.63
2023-03-26T19:47:56.932Z,7.95
2023-03-26T19:50:33.163Z,7.70
2023-03-26T19:53:16.390Z,10.30
2023-03-26T19:55:53.932Z,10.75
2023-03-26T19:58:20.424Z,8.10
2023-03-26T20:00:46.974Z,10.60
2023-03-26T20:03:14.870Z,7.72
2023-03-26T20:05:41.500Z,7.28
2023-03-26T20:08:18.861Z,9.05
2023-03-26T20:10:45.431Z,12.45
2023-03-26T20:13:14.625Z,10.27
2023-03-26T20:15:43.133Z,8.32
2023-03-26T20:18:09.819Z,9.35
2023-03-26T20:20:36.387Z,12.55
2023-03-26T20:23:02.872Z,15.18
2023-03-26T20:25:33.670Z,9.43
2023-03-26T20:28:02.013Z,14.97
2023-03-26T20:30:37.592Z,15.70
2023-03-26T20:33:12.004Z,9.05
2023-03-26T20:35:40.452Z,10.00
2023-03-26T20:38:06.955Z,6.97
2023-03-26T20:40:33.467Z,8.30
2023-03-26T20:42:59.899Z,8.02
2023-03-26T20:45:26.409Z,9.73
2023-03-26T20:47:52.934Z,12.63
2023-03-26T20:50:21.880Z,9.00
2023-03-26T20:52:49.742Z,6.45
2023-03-26T20:55:18.495Z,6.93
2023-03-26T20:57:45.022Z,11.63
2023-03-26T21:00:13.832Z,8.57
2023-03-26T21:02:42.011Z,9.65
2023-03-26T21:05:11.034Z,10.35
2023-03-26T21:07:37.665Z,9.50
2023-03-26T21:10:04.674Z,13.45
2023-03-26T21:12:34.744Z,11.07
2023-03-26T21:15:01.735Z,11.43
2023-03-26T21:17:31.935Z,13.70
2023-03-26T21:19:58.642Z,13.05
2023-03-26T21:22:39.562Z,8.02
2023-03-26T21:25:21.056Z,6.63
2023-03-26T21:28:14.049Z,6.60
2023-03-26T21:30:40.793Z,13.57
2023-03-26T21:33:07.403Z,13.77
2023-03-26T21:35:34.381Z,11.38
2023-03-26T21:38:03.736Z,9.10
2023-03-26T21:40:30.488Z,7.22
2023-03-26T21:42:57.223Z,8.90
2023-03-26T21:45:24.190Z,8.15
2023-03-26T21:47:51.127Z,5.78
2023-03-26T21:50:20.309Z,8.23
2023-03-26T21:52:47.195Z,8.52
2023-03-26T21:55:15.347Z,8.05
2023-03-26T21:57:47.693Z,5.85
2023-03-26T22:00:17.412Z,11.98
2023-03-26T22:03:02.367Z,7.22
2023-03-26T22:05:34.973Z,6.90
2023-03-26T22:08:04.062Z,8.60
2023-03-26T22:10:31.149Z,11.63
2023-03-26T22:12:58.523Z,11.63
2023-03-26T22:15:25.748Z,6.60
2023-03-26T22:17:52.317Z,10.73
2023-03-26T22:20:19.747Z,11.70
2023-03-26T22:22:46.242Z,11.38
2023-03-26T22:25:12.696Z,13.93
2023-03-26T22:27:44.926Z,9.80
2023-03-26T22:30:12.718Z,8.88
2023-03-26T22:32:39.435Z,16.58
2023-03-26T22:35:06.536Z,7.32
2023-03-26T22:37:33.651Z,8.63
2023-03-26T22:40:00.128Z,9.60
2023-03-26T22:42:26.850Z,8.63
2023-03-26T22:44:53.312Z,13.13
2023-03-26T22:47:19.793Z,10.52
2023-03-26T22:49:46.260Z,13.05
2023-03-26T22:52:12.722Z,15.07
2023-03-26T22:54:39.228Z,8.07
2023-03-26T22:57:05.759Z,8.40
2023-03-26T22:59:32.292Z,15.82
2023-03-26T23:01:58.792Z,13.18
2023-03-26T23:04:31.348Z,11.52
2023-03-26T23:06:58.865Z,9.57
2023-03-26T23:09:25.456Z,12.07
2023-03-26T23:11:51.932Z,6.75
2023-03-26T23:14:18.459Z,14.38
2023-03-26T23:16:44.965Z,16.13
2023-03-26T23:19:11.718Z,9.60
2023-03-26T23:21:38.309Z,12.43
2023-03-26T23:24:05.177Z,12.15
2023-03-26T23:26:37.742Z,13.35
2023-03-26T23:29:10.801Z,8.50
2023-03-26T23:31:37.425Z,13.40
2023-03-26T23:34:03.935Z,11.73
2023-03-26T23:36:30.417Z,8.15
2023-03-26T23:38:57.046Z,17.83
2023-03-26T23:41:23.537Z,10.45
2023-03-26T23:43:54.662Z,11.35
2023-03-26T23:46:24.525Z,8.27
2023-03-26T23:48:51.858Z,11.32
2023-03-26T23:51:19.162Z,11.90
2023-03-26T23:53:46.653Z,10.50
2023-03-26T23:56:13.643Z,10.57
2023-03-26T23:58:40.111Z,6.97
